sensor_id;sensor_type;location;lat;lon;timestamp;P1;durP1;ratioP1;P2;durP2;ratioP2
13366;SDS011;6752;52.612;13.630;2023-07-31T00:02:30;3.07;;;2.20;;
13366;SDS011;6752;52.612;13.630;2023-07-31T00:07:32;3.50;;;2.10;;
13366;SDS011;6752;52.612;13.630;2023-07-31T00:12:34;3.93;;;2.00;;
13366;SDS011;6752;52.612;13.630;2023-07-31T00:17:37;3.77;;;2.00;;
13366;SDS011;6752;52.612;13.630;2023-07-31T00:22:39;2.60;;;1.70;;
13366;SDS011;6752;52.612;13.630;2023-07-31T00:27:41;4.50;;;2.00;;
13366;SDS011;6752;52.612;13.630;2023-07-31T00:32:46;3.37;;;2.17;;
13366;SDS011;6752;52.612;13.630;2023-07-31T00:37:49;2.80;;;1.70;;
13366;SDS011;6752;52.612;13.630;2023-07-31T00:42:51;4.13;;;1.83;;
13366;SDS011;6752;52.612;13.630;2023-07-31T00:47:53;2.20;;;1.77;;
13366;SDS011;6752;52.612;13.630;2023-07-31T00:52:56;3.37;;;1.70;;
13366;SDS011;6752;52.612;13.630;2023-07-31T00:57:58;2.90;;;1.80;;
13366;SDS011;6752;52.612;13.630;2023-07-31T01:03:01;2.30;;;1.70;;
13366;SDS011;6752;52.612;13.630;2023-07-31T01:08:11;2.77;;;1.67;;
13366;SDS011;6752;52.612;13.630;2023-07-31T01:13:08;2.67;;;1.73;;
13366;SDS011;6752;52.612;13.630;2023-07-31T01:18:10;2.90;;;1.90;;
13366;SDS011;6752;52.612;13.630;2023-07-31T01:28:40;3.00;;;1.90;;
13366;SDS011;6752;52.612;13.630;2023-07-31T01:33:35;3.87;;;2.25;;
13366;SDS011;6752;52.612;13.630;2023-07-31T01:38:38;3.97;;;1.97;;
13366;SDS011;6752;52.612;13.630;2023-07-31T01:43:40;3.73;;;2.23;;
13366;SDS011;6752;52.612;13.630;2023-07-31T01:48:42;4.53;;;2.40;;
13366;SDS011;6752;52.612;13.630;2023-07-31T01:53:45;3.33;;;2.30;;
13366;SDS011;6752;52.612;13.630;2023-07-31T01:58:47;4.03;;;2.10;;
13366;SDS011;6752;52.612;13.630;2023-07-31T02:03:50;3.43;;;2.47;;
13366;SDS011;6752;52.612;13.630;2023-07-31T02:08:52;4.53;;;2.80;;
13366;SDS011;6752;52.612;13.630;2023-07-31T02:13:54;3.63;;;2.47;;
13366;SDS011;6752;52.612;13.630;2023-07-31T02:18:57;4.23;;;2.77;;
13366;SDS011;6752;52.612;13.630;2023-07-31T02:23:59;4.07;;;2.23;;
13366;SDS011;6752;52.612;13.630;2023-07-31T02:29:01;3.33;;;2.10;;
13366;SDS011;6752;52.612;13.630;2023-07-31T02:34:04;3.37;;;2.33;;
13366;SDS011;6752;52.612;13.630;2023-07-31T02:39:06;3.87;;;2.30;;
13366;SDS011;6752;52.612;13.630;2023-07-31T02:44:08;2.97;;;1.90;;
13366;SDS011;6752;52.612;13.630;2023-07-31T02:49:11;2.93;;;2.00;;
13366;SDS011;6752;52.612;13.630;2023-07-31T02:54:13;3.77;;;2.67;;
13366;SDS011;6752;52.612;13.630;2023-07-31T02:59:16;3.93;;;2.83;;
13366;SDS011;6752;52.612;13.630;2023-07-31T03:04:18;4.67;;;2.50;;
13366;SDS011;6752;52.612;13.630;2023-07-31T03:09:20;3.10;;;2.53;;
13366;SDS011;6752;52.612;13.630;2023-07-31T03:14:23;4.00;;;2.27;;
13366;SDS011;6752;52.612;13.630;2023-07-31T03:19:25;2.80;;;2.47;;
13366;SDS011;6752;52.612;13.630;2023-07-31T03:24:28;2.63;;;2.13;;
13366;SDS011;6752;52.612;13.630;2023-07-31T03:29:30;3.60;;;2.43;;
13366;SDS011;6752;52.612;13.630;2023-07-31T03:34:32;5.20;;;3.13;;
13366;SDS011;6752;52.612;13.630;2023-07-31T03:39:35;4.17;;;2.67;;
13366;SDS011;6752;52.612;13.630;2023-07-31T03:44:37;7.37;;;3.67;;
13366;SDS011;6752;52.612;13.630;2023-07-31T03:49:39;5.70;;;4.07;;
13366;SDS011;6752;52.612;13.630;2023-07-31T03:54:41;6.83;;;4.73;;
13366;SDS011;6752;52.612;13.630;2023-07-31T03:59:44;5.80;;;4.43;;
13366;SDS011;6752;52.612;13.630;2023-07-31T04:04:46;6.37;;;3.97;;
13366;SDS011;6752;52.612;13.630;2023-07-31T04:09:49;6.50;;;4.67;;
13366;SDS011;6752;52.612;13.630;2023-07-31T04:14:51;4.80;;;4.10;;
13366;SDS011;6752;52.612;13.630;2023-07-31T04:19:53;7.03;;;5.43;;
13366;SDS011;6752;52.612;13.630;2023-07-31T04:24:56;10.00;;;5.67;;
13366;SDS011;6752;52.612;13.630;2023-07-31T04:29:58;7.00;;;5.17;;
13366;SDS011;6752;52.612;13.630;2023-07-31T04:35:01;8.07;;;5.80;;
13366;SDS011;6752;52.612;13.630;2023-07-31T04:40:03;7.03;;;5.80;;
13366;SDS011;6752;52.612;13.630;2023-07-31T04:45:05;7.73;;;5.73;;
13366;SDS011;6752;52.612;13.630;2023-07-31T04:50:07;6.97;;;5.33;;
13366;SDS011;6752;52.612;13.630;2023-07-31T04:55:10;8.53;;;5.23;;
13366;SDS011;6752;52.612;13.630;2023-07-31T05:00:12;5.40;;;4.60;;
13366;SDS011;6752;52.612;13.630;2023-07-31T05:05:15;6.73;;;4.90;;
13366;SDS011;6752;52.612;13.630;2023-07-31T05:10:17;7.53;;;5.17;;
13366;SDS011;6752;52.612;13.630;2023-07-31T05:15:19;6.27;;;5.00;;
13366;SDS011;6752;52.612;13.630;2023-07-31T05:20:22;6.07;;;4.80;;
13366;SDS011;6752;52.612;13.630;2023-07-31T05:25:24;7.80;;;4.47;;
13366;SDS011;6752;52.612;13.630;2023-07-31T05:30:26;5.82;;;4.55;;
13366;SDS011;6752;52.612;13.630;2023-07-31T05:35:29;4.67;;;4.03;;
13366;SDS011;6752;52.612;13.630;2023-07-31T05:40:35;5.90;;;3.87;;
13366;SDS011;6752;52.612;13.630;2023-07-31T05:45:33;6.87;;;4.90;;
13366;SDS011;6752;52.612;13.630;2023-07-31T05:50:36;5.57;;;4.50;;
13366;SDS011;6752;52.612;13.630;2023-07-31T05:55:38;7.47;;;4.43;;
13366;SDS011;6752;52.612;13.630;2023-07-31T06:00:41;5.30;;;3.90;;
13366;SDS011;6752;52.612;13.630;2023-07-31T06:05:43;7.33;;;4.17;;
13366;SDS011;6752;52.612;13.630;2023-07-31T06:10:45;5.37;;;3.50;;
13366;SDS011;6752;52.612;13.630;2023-07-31T06:15:48;6.30;;;4.00;;
13366;SDS011;6752;52.612;13.630;2023-07-31T06:20:50;7.07;;;3.87;;
13366;SDS011;6752;52.612;13.630;2023-07-31T06:25:52;5.70;;;3.72;;
13366;SDS011;6752;52.612;13.630;2023-07-31T06:30:55;3.93;;;3.10;;
13366;SDS011;6752;52.612;13.630;2023-07-31T06:35:57;6.57;;;3.50;;
13366;SDS011;6752;52.612;13.630;2023-07-31T06:40:59;4.87;;;3.53;;
13366;SDS011;6752;52.612;13.630;2023-07-31T06:46:05;4.07;;;3.28;;
13366;SDS011;6752;52.612;13.630;2023-07-31T06:51:07;4.70;;;3.10;;
13366;SDS011;6752;52.612;13.630;2023-07-31T06:56:09;5.87;;;3.87;;
13366;SDS011;6752;52.612;13.630;2023-07-31T07:01:12;5.00;;;3.40;;
13366;SDS011;6752;52.612;13.630;2023-07-31T07:06:14;4.83;;;3.50;;
13366;SDS011;6752;52.612;13.630;2023-07-31T07:11:16;5.35;;;3.67;;
13366;SDS011;6752;52.612;13.630;2023-07-31T07:16:19;5.37;;;3.30;;
13366;SDS011;6752;52.612;13.630;2023-07-31T07:21:21;7.93;;;3.77;;
13366;SDS011;6752;52.612;13.630;2023-07-31T07:26:24;5.87;;;3.03;;
13366;SDS011;6752;52.612;13.630;2023-07-31T07:31:26;6.30;;;3.73;;
13366;SDS011;6752;52.612;13.630;2023-07-31T07:36:28;5.60;;;3.23;;
13366;SDS011;6752;52.612;13.630;2023-07-31T07:41:31;5.00;;;3.23;;
13366;SDS011;6752;52.612;13.630;2023-07-31T07:46:33;4.93;;;2.90;;
13366;SDS011;6752;52.612;13.630;2023-07-31T07:51:35;4.77;;;2.97;;
13366;SDS011;6752;52.612;13.630;2023-07-31T07:56:38;5.63;;;3.77;;
13366;SDS011;6752;52.612;13.630;2023-07-31T08:01:40;4.47;;;3.20;;
13366;SDS011;6752;52.612;13.630;2023-07-31T08:06:42;5.23;;;3.20;;
13366;SDS011;6752;52.612;13.630;2023-07-31T08:11:45;4.73;;;3.10;;
13366;SDS011;6752;52.612;13.630;2023-07-31T08:16:47;5.20;;;3.50;;
13366;SDS011;6752;52.612;13.630;2023-07-31T08:21:50;5.77;;;3.07;;
13366;SDS011;6752;52.612;13.630;2023-07-31T08:26:54;4.37;;;3.07;;
13366;SDS011;6752;52.612;13.630;2023-07-31T08:31:57;5.03;;;3.40;;
13366;SDS011;6752;52.612;13.630;2023-07-31T08:36:59;4.53;;;2.83;;
13366;SDS011;6752;52.612;13.630;2023-07-31T08:42:01;5.60;;;2.97;;
13366;SDS011;6752;52.612;13.630;2023-07-31T08:47:04;3.83;;;2.60;;
13366;SDS011;6752;52.612;13.630;2023-07-31T08:52:06;4.10;;;3.00;;
13366;SDS011;6752;52.612;13.630;2023-07-31T08:57:09;4.00;;;2.50;;
13366;SDS011;6752;52.612;13.630;2023-07-31T09:02:11;2.37;;;2.13;;
13366;SDS011;6752;52.612;13.630;2023-07-31T09:07:13;3.40;;;2.13;;
13366;SDS011;6752;52.612;13.630;2023-07-31T09:12:16;3.33;;;2.40;;
13366;SDS011;6752;52.612;13.630;2023-07-31T09:17:28;2.37;;;2.10;;
13366;SDS011;6752;52.612;13.630;2023-07-31T09:22:34;3.15;;;2.40;;
13366;SDS011;6752;52.612;13.630;2023-07-31T09:27:49;2.57;;;2.00;;
13366;SDS011;6752;52.612;13.630;2023-07-31T09:32:51;3.37;;;2.60;;
13366;SDS011;6752;52.612;13.630;2023-07-31T09:37:55;3.00;;;2.30;;
13366;SDS011;6752;52.612;13.630;2023-07-31T09:43:00;2.83;;;2.33;;
13366;SDS011;6752;52.612;13.630;2023-07-31T09:47:58;3.60;;;2.10;;
13366;SDS011;6752;52.612;13.630;2023-07-31T09:53:00;2.67;;;1.97;;
13366;SDS011;6752;52.612;13.630;2023-07-31T09:58:03;2.60;;;2.20;;
13366;SDS011;6752;52.612;13.630;2023-07-31T10:03:06;3.87;;;2.57;;
13366;SDS011;6752;52.612;13.630;2023-07-31T10:08:12;2.57;;;2.30;;
13366;SDS011;6752;52.612;13.630;2023-07-31T10:13:13;2.87;;;2.10;;
13366;SDS011;6752;52.612;13.630;2023-07-31T10:18:15;3.07;;;2.10;;
13366;SDS011;6752;52.612;13.630;2023-07-31T10:23:17;3.00;;;2.30;;
13366;SDS011;6752;52.612;13.630;2023-07-31T10:28:20;2.83;;;2.30;;
13366;SDS011;6752;52.612;13.630;2023-07-31T10:33:22;4.53;;;2.17;;
13366;SDS011;6752;52.612;13.630;2023-07-31T10:38:24;3.43;;;2.63;;
13366;SDS011;6752;52.612;13.630;2023-07-31T10:43:27;3.63;;;2.80;;
13366;SDS011;6752;52.612;13.630;2023-07-31T10:48:33;3.57;;;3.10;;
13366;SDS011;6752;52.612;13.630;2023-07-31T10:53:32;5.70;;;3.80;;
13366;SDS011;6752;52.612;13.630;2023-07-31T10:58:34;5.37;;;4.00;;
13366;SDS011;6752;52.612;13.630;2023-07-31T11:03:43;6.20;;;4.07;;
13366;SDS011;6752;52.612;13.630;2023-07-31T11:08:45;5.37;;;3.80;;
13366;SDS011;6752;52.612;13.630;2023-07-31T11:13:50;4.90;;;3.93;;
13366;SDS011;6752;52.612;13.630;2023-07-31T11:18:52;6.07;;;4.07;;
13366;SDS011;6752;52.612;13.630;2023-07-31T11:23:57;5.13;;;4.10;;
13366;SDS011;6752;52.612;13.630;2023-07-31T11:29:00;5.50;;;4.40;;
13366;SDS011;6752;52.612;13.630;2023-07-31T11:34:08;5.70;;;3.60;;
13366;SDS011;6752;52.612;13.630;2023-07-31T11:39:10;5.47;;;3.60;;
13366;SDS011;6752;52.612;13.630;2023-07-31T11:44:13;6.13;;;4.00;;
13366;SDS011;6752;52.612;13.630;2023-07-31T11:49:15;5.53;;;3.77;;
13366;SDS011;6752;52.612;13.630;2023-07-31T11:54:17;5.33;;;3.60;;
13366;SDS011;6752;52.612;13.630;2023-07-31T11:59:20;5.20;;;3.40;;
13366;SDS011;6752;52.612;13.630;2023-07-31T12:04:23;5.35;;;4.20;;
13366;SDS011;6752;52.612;13.630;2023-07-31T12:09:24;5.37;;;3.67;;
13366;SDS011;6752;52.612;13.630;2023-07-31T12:14:27;5.97;;;3.13;;
13366;SDS011;6752;52.612;13.630;2023-07-31T12:19:32;4.63;;;3.67;;
13366;SDS011;6752;52.612;13.630;2023-07-31T12:24:34;4.27;;;3.67;;
13366;SDS011;6752;52.612;13.630;2023-07-31T12:29:37;5.93;;;3.43;;
13366;SDS011;6752;52.612;13.630;2023-07-31T12:34:42;5.23;;;3.57;;
13366;SDS011;6752;52.612;13.630;2023-07-31T12:39:44;4.20;;;3.13;;
13366;SDS011;6752;52.612;13.630;2023-07-31T12:44:46;5.10;;;3.50;;
13366;SDS011;6752;52.612;13.630;2023-07-31T12:49:49;5.37;;;3.17;;
13366;SDS011;6752;52.612;13.630;2023-07-31T12:54:51;4.37;;;3.27;;
13366;SDS011;6752;52.612;13.630;2023-07-31T12:59:53;5.10;;;3.30;;
13366;SDS011;6752;52.612;13.630;2023-07-31T13:04:56;4.90;;;3.17;;
13366;SDS011;6752;52.612;13.630;2023-07-31T13:09:58;4.70;;;3.10;;
13366;SDS011;6752;52.612;13.630;2023-07-31T13:15:01;5.03;;;3.23;;
13366;SDS011;6752;52.612;13.630;2023-07-31T13:20:03;4.47;;;2.80;;
13366;SDS011;6752;52.612;13.630;2023-07-31T13:25:05;3.77;;;2.23;;
13366;SDS011;6752;52.612;13.630;2023-07-31T13:30:08;3.23;;;2.47;;
13366;SDS011;6752;52.612;13.630;2023-07-31T13:35:10;4.20;;;2.87;;
13366;SDS011;6752;52.612;13.630;2023-07-31T13:40:12;2.33;;;2.10;;
13366;SDS011;6752;52.612;13.630;2023-07-31T13:45:15;3.90;;;2.30;;
13366;SDS011;6752;52.612;13.630;2023-07-31T13:50:17;3.57;;;2.60;;
13366;SDS011;6752;52.612;13.630;2023-07-31T13:55:19;3.43;;;2.27;;
13366;SDS011;6752;52.612;13.630;2023-07-31T14:00:26;3.33;;;2.60;;
13366;SDS011;6752;52.612;13.630;2023-07-31T14:05:24;4.93;;;3.20;;
13366;SDS011;6752;52.612;13.630;2023-07-31T14:10:26;4.73;;;3.00;;
13366;SDS011;6752;52.612;13.630;2023-07-31T14:15:29;4.17;;;3.17;;
13366;SDS011;6752;52.612;13.630;2023-07-31T14:20:31;4.93;;;3.10;;
13366;SDS011;6752;52.612;13.630;2023-07-31T14:25:34;4.10;;;3.13;;
13366;SDS011;6752;52.612;13.630;2023-07-31T14:30:36;5.00;;;3.30;;
13366;SDS011;6752;52.612;13.630;2023-07-31T14:35:38;5.10;;;3.10;;
13366;SDS011;6752;52.612;13.630;2023-07-31T14:40:41;5.27;;;3.67;;
13366;SDS011;6752;52.612;13.630;2023-07-31T14:45:43;4.93;;;3.70;;
13366;SDS011;6752;52.612;13.630;2023-07-31T14:50:45;4.80;;;3.27;;
13366;SDS011;6752;52.612;13.630;2023-07-31T14:55:48;4.87;;;3.47;;
13366;SDS011;6752;52.612;13.630;2023-07-31T15:00:50;4.07;;;3.15;;
13366;SDS011;6752;52.612;13.630;2023-07-31T15:05:52;6.47;;;3.50;;
13366;SDS011;6752;52.612;13.630;2023-07-31T15:10:55;4.63;;;3.17;;
13366;SDS011;6752;52.612;13.630;2023-07-31T15:15:57;5.57;;;3.10;;
13366;SDS011;6752;52.612;13.630;2023-07-31T15:20:59;5.33;;;3.27;;
13366;SDS011;6752;52.612;13.630;2023-07-31T15:26:02;5.10;;;3.17;;
13366;SDS011;6752;52.612;13.630;2023-07-31T15:31:04;6.00;;;3.40;;
13366;SDS011;6752;52.612;13.630;2023-07-31T15:36:07;5.97;;;3.50;;
13366;SDS011;6752;52.612;13.630;2023-07-31T15:41:09;4.40;;;3.30;;
13366;SDS011;6752;52.612;13.630;2023-07-31T15:46:11;4.80;;;3.37;;
13366;SDS011;6752;52.612;13.630;2023-07-31T15:51:14;5.05;;;3.40;;
13366;SDS011;6752;52.612;13.630;2023-07-31T15:56:16;4.53;;;3.03;;
13366;SDS011;6752;52.612;13.630;2023-07-31T16:01:18;5.43;;;3.67;;
13366;SDS011;6752;52.612;13.630;2023-07-31T16:06:21;4.67;;;3.40;;
13366;SDS011;6752;52.612;13.630;2023-07-31T16:11:23;4.50;;;3.43;;
13366;SDS011;6752;52.612;13.630;2023-07-31T16:16:25;4.83;;;3.37;;
13366;SDS011;6752;52.612;13.630;2023-07-31T16:21:28;6.23;;;3.80;;
13366;SDS011;6752;52.612;13.630;2023-07-31T16:26:30;5.17;;;3.47;;
13366;SDS011;6752;52.612;13.630;2023-07-31T16:31:32;5.13;;;3.53;;
13366;SDS011;6752;52.612;13.630;2023-07-31T16:36:35;4.07;;;3.40;;
13366;SDS011;6752;52.612;13.630;2023-07-31T16:41:37;5.17;;;3.10;;
13366;SDS011;6752;52.612;13.630;2023-07-31T16:46:40;6.70;;;3.60;;
13366;SDS011;6752;52.612;13.630;2023-07-31T16:51:42;4.77;;;3.60;;
13366;SDS011;6752;52.612;13.630;2023-07-31T16:56:44;6.27;;;3.20;;
13366;SDS011;6752;52.612;13.630;2023-07-31T17:01:47;4.70;;;3.50;;
13366;SDS011;6752;52.612;13.630;2023-07-31T17:06:49;3.90;;;3.00;;
13366;SDS011;6752;52.612;13.630;2023-07-31T17:11:51;5.95;;;3.40;;
13366;SDS011;6752;52.612;13.630;2023-07-31T17:16:54;4.70;;;2.97;;
13366;SDS011;6752;52.612;13.630;2023-07-31T17:21:56;4.67;;;2.83;;
13366;SDS011;6752;52.612;13.630;2023-07-31T17:26:58;3.90;;;2.90;;
13366;SDS011;6752;52.612;13.630;2023-07-31T17:32:01;3.20;;;2.73;;
13366;SDS011;6752;52.612;13.630;2023-07-31T17:37:03;4.70;;;2.83;;
13366;SDS011;6752;52.612;13.630;2023-07-31T17:42:05;4.50;;;3.13;;
13366;SDS011;6752;52.612;13.630;2023-07-31T17:47:08;4.97;;;2.90;;
13366;SDS011;6752;52.612;13.630;2023-07-31T17:52:10;4.20;;;2.97;;
13366;SDS011;6752;52.612;13.630;2023-07-31T17:57:13;3.87;;;2.77;;
13366;SDS011;6752;52.612;13.630;2023-07-31T18:02:15;3.97;;;2.80;;
13366;SDS011;6752;52.612;13.630;2023-07-31T18:07:17;6.43;;;3.20;;
13366;SDS011;6752;52.612;13.630;2023-07-31T18:12:20;4.43;;;3.27;;
13366;SDS011;6752;52.612;13.630;2023-07-31T18:17:22;3.60;;;2.93;;
13366;SDS011;6752;52.612;13.630;2023-07-31T18:22:29;3.83;;;2.93;;
13366;SDS011;6752;52.612;13.630;2023-07-31T18:27:27;4.13;;;2.67;;
13366;SDS011;6752;52.612;13.630;2023-07-31T18:32:29;3.17;;;2.40;;
13366;SDS011;6752;52.612;13.630;2023-07-31T18:37:31;3.87;;;2.70;;
13366;SDS011;6752;52.612;13.630;2023-07-31T18:42:34;4.30;;;2.97;;
13366;SDS011;6752;52.612;13.630;2023-07-31T18:47:36;3.40;;;2.70;;
13366;SDS011;6752;52.612;13.630;2023-07-31T18:52:38;3.47;;;2.83;;
13366;SDS011;6752;52.612;13.630;2023-07-31T18:57:41;4.20;;;2.90;;
13366;SDS011;6752;52.612;13.630;2023-07-31T19:02:43;4.33;;;2.90;;
13366;SDS011;6752;52.612;13.630;2023-07-31T19:07:46;4.27;;;2.70;;
13366;SDS011;6752;52.612;13.630;2023-07-31T19:12:48;4.03;;;2.80;;
13366;SDS011;6752;52.612;13.630;2023-07-31T19:17:50;4.57;;;2.90;;
13366;SDS011;6752;52.612;13.630;2023-07-31T19:22:53;4.03;;;2.67;;
13366;SDS011;6752;52.612;13.630;2023-07-31T19:27:55;4.17;;;2.70;;
13366;SDS011;6752;52.612;13.630;2023-07-31T19:32:57;4.03;;;3.10;;
13366;SDS011;6752;52.612;13.630;2023-07-31T19:38:00;3.53;;;3.00;;
13366;SDS011;6752;52.612;13.630;2023-07-31T19:43:02;5.10;;;3.10;;
13366;SDS011;6752;52.612;13.630;2023-07-31T19:48:04;4.93;;;3.03;;
13366;SDS011;6752;52.612;13.630;2023-07-31T19:53:07;4.23;;;3.20;;
13366;SDS011;6752;52.612;13.630;2023-07-31T19:58:09;4.03;;;3.00;;
13366;SDS011;6752;52.612;13.630;2023-07-31T20:03:11;4.50;;;3.10;;
13366;SDS011;6752;52.612;13.630;2023-07-31T20:08:14;4.97;;;3.30;;
13366;SDS011;6752;52.612;13.630;2023-07-31T20:13:16;6.67;;;3.40;;
13366;SDS011;6752;52.612;13.630;2023-07-31T20:18:20;4.43;;;3.00;;
13366;SDS011;6752;52.612;13.630;2023-07-31T20:23:22;6.07;;;3.70;;
13366;SDS011;6752;52.612;13.630;2023-07-31T20:28:24;6.53;;;3.63;;
13366;SDS011;6752;52.612;13.630;2023-07-31T20:33:27;7.23;;;3.50;;
13366;SDS011;6752;52.612;13.630;2023-07-31T20:38:29;5.80;;;3.60;;
13366;SDS011;6752;52.612;13.630;2023-07-31T20:43:31;4.87;;;3.50;;
13366;SDS011;6752;52.612;13.630;2023-07-31T20:48:34;4.87;;;3.30;;
13366;SDS011;6752;52.612;13.630;2023-07-31T20:53:36;5.03;;;3.50;;
13366;SDS011;6752;52.612;13.630;2023-07-31T20:58:38;4.77;;;3.27;;
13366;SDS011;6752;52.612;13.630;2023-07-31T21:03:41;5.97;;;3.33;;
13366;SDS011;6752;52.612;13.630;2023-07-31T21:08:43;4.60;;;3.53;;
13366;SDS011;6752;52.612;13.630;2023-07-31T21:13:45;4.87;;;3.60;;
13366;SDS011;6752;52.612;13.630;2023-07-31T21:18:48;7.43;;;3.70;;
13366;SDS011;6752;52.612;13.630;2023-07-31T21:23:50;5.70;;;4.17;;
13366;SDS011;6752;52.612;13.630;2023-07-31T21:28:53;6.90;;;3.97;;
13366;SDS011;6752;52.612;13.630;2023-07-31T21:33:55;4.90;;;3.40;;
13366;SDS011;6752;52.612;13.630;2023-07-31T21:38:57;5.97;;;3.97;;
13366;SDS011;6752;52.612;13.630;2023-07-31T21:44:00;7.07;;;4.43;;
13366;SDS011;6752;52.612;13.630;2023-07-31T21:49:02;6.43;;;4.30;;
13366;SDS011;6752;52.612;13.630;2023-07-31T21:54:04;5.03;;;4.03;;
13366;SDS011;6752;52.612;13.630;2023-07-31T21:59:07;5.55;;;4.03;;
13366;SDS011;6752;52.612;13.630;2023-07-31T22:04:09;6.30;;;4.00;;
13366;SDS011;6752;52.612;13.630;2023-07-31T22:09:11;7.77;;;4.30;;
13366;SDS011;6752;52.612;13.630;2023-07-31T22:14:14;5.33;;;3.57;;
13366;SDS011;6752;52.612;13.630;2023-07-31T22:19:16;6.50;;;4.03;;
13366;SDS011;6752;52.612;13.630;2023-07-31T22:24:18;6.43;;;4.17;;
13366;SDS011;6752;52.612;13.630;2023-07-31T22:29:21;7.10;;;4.35;;
13366;SDS011;6752;52.612;13.630;2023-07-31T22:34:23;5.30;;;3.90;;
13366;SDS011;6752;52.612;13.630;2023-07-31T22:39:26;7.87;;;4.40;;
13366;SDS011;6752;52.612;13.630;2023-07-31T22:44:28;5.70;;;3.87;;
13366;SDS011;6752;52.612;13.630;2023-07-31T22:49:30;6.03;;;4.30;;
13366;SDS011;6752;52.612;13.630;2023-07-31T22:54:33;6.00;;;4.00;;
13366;SDS011;6752;52.612;13.630;2023-07-31T22:59:35;5.90;;;4.20;;
13366;SDS011;6752;52.612;13.630;2023-07-31T23:04:37;6.35;;;4.50;;
13366;SDS011;6752;52.612;13.630;2023-07-31T23:09:43;5.67;;;4.30;;
13366;SDS011;6752;52.612;13.630;2023-07-31T23:14:42;6.07;;;4.20;;
13366;SDS011;6752;52.612;13.630;2023-07-31T23:19:44;6.07;;;4.70;;
13366;SDS011;6752;52.612;13.630;2023-07-31T23:24:47;4.30;;;3.80;;
13366;SDS011;6752;52.612;13.630;2023-07-31T23:29:49;6.83;;;4.30;;
13366;SDS011;6752;52.612;13.630;2023-07-31T23:34:51;5.57;;;4.07;;
13366;SDS011;6752;52.612;13.630;2023-07-31T23:39:54;6.83;;;3.90;;
13366;SDS011;6752;52.612;13.630;2023-07-31T23:44:56;7.77;;;4.47;;
13366;SDS011;6752;52.612;13.630;2023-07-31T23:49:59;5.73;;;4.53;;
13366;SDS011;6752;52.612;13.630;2023-07-31T23:55:01;7.00;;;4.30;;
